Time;durP1;ratioP1;P1;durP2;ratioP2;P2;SDS_P1;SDS_P2;PMS_P1;PMS_P2;Temp;Humidity;BMP_temperature;BMP_pressure;BME280_temperature;BME280_humidity;BME280_pressure;Samples;Min_cycle;Max_cycle;Signal;HPM_P1;HPM_P2
2023/06/08 00:05:28;;;;;;;;;;;;;;;16.22;48.75;96526.81;4924039;29;19979;-79
2023/06/08 00:12:18;;;;;;;;;;;;;;;16.15;48.79;96526.91;4924062;29;19908;-82
2023/06/08 00:26:53;;;;;;;;;;;;;;;16.04;49.50;96525.00;4923161;29;19915;-79
2023/06/08 00:33:01;;;;;;;;;;;;;;;15.99;49.84;96525.66;5017016;28;19913;-78
2023/06/08 00:49:27;;;;;;;;;;;;;;;15.63;50.92;96529.78;5016969;28;19956;-79
2023/06/08 00:52:03;;;;;;;;;;;;;;;15.56;50.87;96531.66;5030496;23;19922;-79
2023/06/08 02:00:58;;;;;;;;;;;;;;;15.98;52.24;96492.47;4996544;28;19922;-79
2023/06/08 02:03:30;;;;;;;;;;;;;;;15.95;52.46;96487.63;4997811;28;19918;-79
2023/06/08 02:06:21;;;;;;;;;;;;;;;15.92;51.89;96487.25;4998741;28;19922;-78
2023/06/08 02:09:05;;;;;;;;;;;;;;;15.87;51.95;96480.03;4998572;28;19906;-78
2023/06/08 02:11:55;;;;;;;;;;;;;;;15.86;52.41;96478.44;4984472;28;19957;-80
2023/06/08 02:31:13;;;;;;;;;;;;;;;15.83;52.72;96482.31;5020911;28;19922;-78
2023/06/08 02:49:47;;;;;;;;;;;;;;;15.58;53.18;96477.03;4945628;29;19930;-79
2023/06/08 03:41:57;;;;;;;;;;;;;;;15.00;54.98;96495.69;5017677;28;19964;-79
2023/06/08 03:44:33;;;;;;;;;;;;;;;15.01;54.62;96492.03;5020655;28;19929;-78
2023/06/08 04:40:29;;;;;;;;;;;;;;;15.61;57.71;96497.66;4978619;28;19933;-80
2023/06/08 04:43:10;;;;;;;;;;;;;;;15.69;56.88;96499.19;4997195;28;19945;-79
2023/06/08 04:45:49;;;;;;;;;;;;;;;15.75;56.06;96506.25;4980092;29;20052;-78
2023/06/08 04:51:29;;;;;;;;;;;;;;;15.85;55.81;96511.81;4979911;29;19922;-79
2023/06/08 04:54:13;;;;;;;;;;;;;;;15.85;55.45;96513.63;4962200;29;19906;-78
2023/06/08 04:57:00;;;;;;;;;;;;;;;15.88;56.74;96507.94;4979928;28;19919;-80
2023/06/08 04:59:28;;;;;;;;;;;;;;;15.96;56.19;96509.47;4965967;29;19907;-79
2023/06/08 05:02:01;;;;;;;;;;;;;;;16.04;55.03;96506.56;4974960;28;19929;-80
2023/06/08 05:04:29;;;;;;;;;;;;;;;16.18;54.99;96512.50;4979853;28;20004;-80
2023/06/08 05:06:57;;;;;;;;;;;;;;;16.28;55.40;96510.16;4967578;28;19926;-79
2023/06/08 05:09:24;;;;;;;;;;;;;;;16.30;55.34;96510.75;4981704;28;20425;-79
2023/06/08 05:11:53;;;;;;;;;;;;;;;16.34;54.48;96509.28;4993586;28;19929;-82
2023/06/08 05:14:26;;;;;;;;;;;;;;;16.39;54.91;96506.78;4975074;29;20316;-82
2023/06/08 05:16:55;;;;;;;;;;;;;;;16.45;55.09;96508.53;4952162;29;19946;-83
2023/06/08 05:19:24;;;;;;;;;;;;;;;16.50;54.73;96499.19;4971097;29;19929;-82
2023/06/08 05:21:51;;;;;;;;;;;;;;;16.56;54.91;96501.72;4967008;29;20090;-82
2023/06/08 05:24:19;;;;;;;;;;;;;;;16.60;55.49;96504.72;4973363;28;19922;-79
2023/06/08 05:26:48;;;;;;;;;;;;;;;16.63;54.77;96506.91;5012008;23;19949;-79
2023/06/08 05:29:16;;;;;;;;;;;;;;;16.69;54.54;96513.94;4998860;28;19988;-79
2023/06/08 05:31:45;;;;;;;;;;;;;;;16.74;54.07;96505.34;5001821;28;20012;-77
2023/06/08 05:34:12;;;;;;;;;;;;;;;16.82;54.02;96508.50;4999785;28;19921;-88
2023/06/08 05:36:39;;;;;;;;;;;;;;;16.92;54.60;96515.06;5010308;28;20360;-78
2023/06/08 05:39:07;;;;;;;;;;;;;;;16.98;54.16;96506.28;5001932;28;20356;-78
2023/06/08 05:41:35;;;;;;;;;;;;;;;17.05;53.86;96504.34;5001870;28;19921;-78
2023/06/08 05:44:02;;;;;;;;;;;;;;;17.06;54.37;96508.59;4991216;28;19921;-78
2023/06/08 05:46:29;;;;;;;;;;;;;;;17.11;54.31;96507.91;4984844;28;19969;-78
2023/06/08 05:48:58;;;;;;;;;;;;;;;17.18;54.40;96505.97;4993766;28;19925;-79
2023/06/08 05:51:26;;;;;;;;;;;;;;;17.23;54.01;96508.72;5000070;28;20293;-78
2023/06/08 05:53:53;;;;;;;;;;;;;;;17.30;54.76;96509.47;4998344;28;20378;-79
2023/06/08 05:56:21;;;;;;;;;;;;;;;17.38;54.53;96510.94;4994553;28;20301;-78
2023/06/08 05:58:48;;;;;;;;;;;;;;;17.45;55.16;96509.03;4993350;28;19922;-76
2023/06/08 06:01:17;;;;;;;;;;;;;;;17.54;55.06;96510.31;4982387;28;19925;-77
2023/06/08 06:03:44;;;;;;;;;;;;;;;17.61;54.83;96505.72;4984939;28;19929;-77
2023/06/08 06:06:13;;;;;;;;;;;;;;;17.69;54.48;96513.28;4972892;28;20016;-77
2023/06/08 06:08:40;;;;;;;;;;;;;;;17.78;54.72;96510.31;4974126;28;19965;-78
2023/06/08 06:11:11;;;;;;;;;;;;;;;17.88;54.50;96513.19;4973531;28;19922;-77
2023/06/08 06:13:38;;;;;;;;;;;;;;;17.96;53.96;96512.84;4974417;28;19925;-77
2023/06/08 06:16:06;;;;;;;;;;;;;;;18.05;54.18;96505.38;4978284;28;19922;-77
2023/06/08 06:18:34;;;;;;;;;;;;;;;18.11;53.91;96502.63;4976657;28;19928;-77
2023/06/08 06:21:01;;;;;;;;;;;;;;;18.21;54.01;96501.22;4974371;28;19957;-77
2023/06/08 06:23:30;;;;;;;;;;;;;;;18.30;53.55;96502.47;4976909;28;19922;-78
2023/06/08 06:25:57;;;;;;;;;;;;;;;18.39;54.25;96500.25;4974060;28;19977;-77
2023/06/08 06:28:25;;;;;;;;;;;;;;;18.47;52.59;96497.25;4985459;28;20004;-77
2023/06/08 06:30:53;;;;;;;;;;;;;;;18.55;53.18;96502.19;4977416;28;19922;-77
2023/06/08 06:33:20;;;;;;;;;;;;;;;18.62;52.03;96505.47;4984951;28;19975;-77
2023/06/08 06:35:48;;;;;;;;;;;;;;;18.69;53.07;96495.59;4995277;28;20401;-83
2023/06/08 06:38:15;;;;;;;;;;;;;;;18.78;52.78;96509.25;4997085;28;19945;-83
2023/06/08 06:40:44;;;;;;;;;;;;;;;18.86;53.53;96511.50;4995965;28;19922;-81
2023/06/08 06:43:11;;;;;;;;;;;;;;;18.97;52.71;96517.00;4984811;28;19922;-81
2023/06/08 06:45:39;;;;;;;;;;;;;;;19.05;52.86;96513.97;4975565;28;19926;-81
2023/06/08 06:48:06;;;;;;;;;;;;;;;19.14;53.24;96509.91;4975345;28;20350;-82
2023/06/08 06:50:34;;;;;;;;;;;;;;;19.24;52.86;96509.25;4978668;28;19962;-82
2023/06/08 06:53:01;;;;;;;;;;;;;;;19.34;52.65;96501.50;4980235;28;19969;-79
2023/06/08 06:55:34;;;;;;;;;;;;;;;19.42;52.93;96502.97;4978686;28;19945;-78
2023/06/08 06:58:03;;;;;;;;;;;;;;;19.54;53.52;96506.31;4981418;28;19922;-79
2023/06/08 07:00:36;;;;;;;;;;;;;;;19.64;53.59;96503.84;4997948;28;20370;-78
2023/06/08 07:03:04;;;;;;;;;;;;;;;19.74;52.70;96500.56;4996068;28;19921;-79
2023/06/08 07:05:32;;;;;;;;;;;;;;;19.86;51.86;96500.47;5005620;28;19980;-79
2023/06/08 07:08:00;;;;;;;;;;;;;;;19.95;52.35;96501.66;5009205;28;19949;-82
2023/06/08 07:10:27;;;;;;;;;;;;;;;20.04;51.95;96494.09;5006717;28;19926;-78
2023/06/08 07:12:55;;;;;;;;;;;;;;;20.15;52.03;96501.91;4984522;28;19969;-78
2023/06/08 07:15:23;;;;;;;;;;;;;;;20.26;52.47;96499.41;4987353;28;20585;-77
2023/06/08 07:17:51;;;;;;;;;;;;;;;20.38;50.50;96495.59;4989851;28;19929;-78
2023/06/08 07:20:18;;;;;;;;;;;;;;;20.49;50.97;96491.22;5014700;28;19929;-78
2023/06/08 07:22:46;;;;;;;;;;;;;;;20.56;50.49;96496.34;5001459;28;19976;-79
2023/06/08 07:25:34;;;;;;;;;;;;;;;20.60;50.37;96501.94;5007424;28;19922;-78
2023/06/08 07:28:21;;;;;;;;;;;;;;;20.66;50.28;96495.66;5006603;28;19921;-79
2023/06/08 07:30:50;;;;;;;;;;;;;;;20.76;50.52;96495.78;5005280;28;19961;-78
2023/06/08 07:33:17;;;;;;;;;;;;;;;20.88;50.22;96499.09;4999395;28;19945;-79
2023/06/08 07:35:45;;;;;;;;;;;;;;;21.02;50.11;96496.84;5005789;28;19921;-78
2023/06/08 07:38:14;;;;;;;;;;;;;;;21.16;49.28;96495.38;5004403;28;19921;-77
2023/06/08 07:40:42;;;;;;;;;;;;;;;21.30;49.13;96501.09;4998276;28;19922;-78
2023/06/08 07:43:09;;;;;;;;;;;;;;;21.42;48.94;96500.13;4982438;28;19926;-78
2023/06/08 07:45:37;;;;;;;;;;;;;;;21.49;49.38;96509.47;4983926;28;20385;-78
2023/06/08 07:48:06;;;;;;;;;;;;;;;21.60;49.32;96502.41;4988193;28;19922;-78
2023/06/08 07:50:34;;;;;;;;;;;;;;;21.69;49.19;96500.88;5002178;28;19922;-79
2023/06/08 07:53:01;;;;;;;;;;;;;;;21.78;48.42;96499.34;4983791;28;19972;-78
2023/06/08 07:55:29;;;;;;;;;;;;;;;21.87;48.77;96497.03;4983052;28;19989;-78
2023/06/08 07:57:56;;;;;;;;;;;;;;;21.96;48.08;96497.34;4984508;28;20389;-77
2023/06/08 08:00:25;;;;;;;;;;;;;;;22.09;48.32;96496.09;4979590;28;19930;-78
2023/06/08 08:02:53;;;;;;;;;;;;;;;22.20;47.84;96498.53;4989835;28;20017;-77
2023/06/08 08:05:22;;;;;;;;;;;;;;;22.34;47.79;96498.09;4993628;28;19929;-78
2023/06/08 08:07:49;;;;;;;;;;;;;;;22.48;46.62;96498.41;4990196;28;19977;-79
2023/06/08 08:10:17;;;;;;;;;;;;;;;22.60;46.34;96498.97;4998875;28;20004;-79
2023/06/08 08:12:44;;;;;;;;;;;;;;;22.71;45.87;96491.84;4989141;28;19929;-77
2023/06/08 08:15:37;;;;;;;5.90;5.32;;;;;;;22.86;45.91;96499.06;5132689;27;1292660;-81
2023/06/08 08:18:04;;;;;;;5.60;5.10;;;;;;;22.95;45.42;96498.28;5159248;27;20494;-80
2023/06/08 08:20:32;;;;;;;6.07;5.35;;;;;;;23.03;45.01;96489.81;5154408;27;20613;-77
2023/06/08 08:23:00;;;;;;;6.03;5.35;;;;;;;23.15;45.36;96491.41;5151832;27;20147;-80
2023/06/08 08:25:28;;;;;;;6.25;5.63;;;;;;;23.26;44.73;96493.00;5153045;27;20082;-81
2023/06/08 08:27:55;;;;;;;7.13;6.20;;;;;;;23.34;45.09;96484.50;5154934;27;20043;-79
2023/06/08 08:30:23;;;;;;;9.02;5.32;;;;;;;23.49;45.75;96485.59;5165871;27;20046;-79
2023/06/08 08:32:52;;;;;;;5.10;4.60;;;;;;;23.62;44.18;96498.34;5156325;27;20049;-81
2023/06/08 08:35:22;;;;;;;5.55;4.63;;;;;;;23.72;40.81;96490.34;5156055;27;20057;-81
2023/06/08 08:37:50;;;;;;;4.60;3.85;;;;;;;23.81;40.69;96486.13;5153589;27;20483;-81
2023/06/08 08:40:18;;;;;;;5.32;4.82;;;;;;;23.92;39.86;96488.75;5160497;27;20042;-80
2023/06/08 08:42:54;;;;;;;9.82;4.50;;;;;;;24.02;38.02;96489.50;5154339;27;20463;-78
2023/06/08 08:45:28;;;;;;;3.85;3.47;;;;;;;24.10;37.24;96485.50;5159321;27;20045;-80
2023/06/08 08:47:57;;;;;;;8.98;3.50;;;;;;;24.17;36.98;96488.69;5151644;27;20426;-77
2023/06/08 08:50:26;;;;;;;5.90;4.10;;;;;;;24.29;36.32;96479.56;5160307;27;20046;-79
2023/06/08 08:52:56;;;;;;;5.47;4.97;;;;;;;24.40;37.48;96486.47;5174193;27;20133;-79
2023/06/08 08:55:28;;;;;;;4.55;3.90;;;;;;;24.50;37.71;96494.44;5163862;27;20069;-80
2023/06/08 08:57:59;;;;;;;6.20;4.22;;;;;;;24.62;37.86;96489.59;5177156;27;20050;-81
2023/06/08 09:00:27;;;;;;;4.55;4.15;;;;;;;24.72;37.40;96485.28;5170528;27;20046;-82
2023/06/08 09:02:57;;;;;;;6.07;4.00;;;;;;;24.81;38.11;96489.75;5161461;27;20065;-84
2023/06/08 09:05:25;;;;;;;5.15;3.45;;;;;;;24.91;36.24;96482.78;5168698;27;20477;-84
2023/06/08 09:07:53;;;;;;;4.03;3.63;;;;;;;24.99;36.40;96477.66;5160437;27;20047;-84
2023/06/08 09:10:23;;;;;;;5.18;4.50;;;;;;;25.09;38.76;96480.25;5158528;27;20129;-83
2023/06/08 09:12:52;;;;;;;6.18;5.57;;;;;;;25.13;39.39;96474.38;5158423;27;20054;-82
2023/06/08 09:15:27;;;;;;;5.72;5.22;;;;;;;25.11;40.34;96477.31;5157906;27;20110;-82
2023/06/08 09:17:58;;;;;;;5.35;4.85;;;;;;;25.17;39.93;96475.41;5157890;27;20047;-84
2023/06/08 09:20:29;;;;;;;6.45;5.45;;;;;;;25.25;40.19;96475.66;5156700;27;20051;-84
2023/06/08 09:22:57;;;;;;;5.28;4.78;;;;;;;25.34;39.79;96475.81;5155746;27;20650;-84
2023/06/08 09:25:37;;;;;;;4.50;4.10;;;;;;;25.37;38.72;96469.94;5151934;27;20047;-84
2023/06/08 09:28:16;;;;;;;5.05;4.55;;;;;;;25.44;38.58;96462.38;5143505;27;20055;-84
2023/06/08 09:30:44;;;;;;;5.88;4.20;;;;;;;25.53;37.81;96465.25;5141929;27;20050;-84
2023/06/08 09:33:21;;;;;;;4.85;4.40;;;;;;;25.58;37.58;96459.88;5147351;27;20039;-84
2023/06/08 09:36:04;;;;;;;4.82;4.43;;;;;;;25.64;37.43;96463.28;5141215;27;20494;-82
2023/06/08 09:38:33;;;;;;;4.88;4.05;;;;;;;25.66;37.22;96455.78;5139896;27;20086;-82
2023/06/08 09:41:15;;;;;;;4.90;4.00;;;;;;;25.63;37.16;96461.72;5139755;27;20147;-82
2023/06/08 09:43:44;;;;;;;5.07;4.05;;;;;;;25.61;36.79;96459.31;5138347;27;20050;-80
2023/06/08 09:46:16;;;;;;;5.35;4.00;;;;;;;25.62;36.97;96452.09;5138801;27;20107;-82
2023/06/08 09:48:56;;;;;;;4.00;3.70;;;;;;;25.67;35.56;96452.03;5137365;27;20051;-79
2023/06/08 09:51:25;;;;;;;4.93;3.85;;;;;;;25.72;35.41;96451.22;5136876;27;20054;-79
2023/06/08 09:53:55;;;;;;;3.92;3.63;;;;;;;25.78;32.64;96450.88;5137063;27;20065;-80
2023/06/08 09:56:23;;;;;;;4.72;4.10;;;;;;;25.82;32.56;96453.75;5136417;27;20043;-79
2023/06/08 09:58:53;;;;;;;5.05;4.32;;;;;;;25.82;32.39;96448.41;5136535;27;20051;-80
2023/06/08 10:01:27;;;;;;;4.30;3.90;;;;;;;25.90;32.72;96447.81;5136197;27;20119;-79
2023/06/08 10:04:00;;;;;;;4.63;3.78;;;;;;;26.05;32.67;96444.19;5136731;27;20535;-79
2023/06/08 10:06:33;;;;;;;4.47;3.92;;;;;;;26.15;33.07;96435.25;5135986;27;20589;-79
2023/06/08 10:09:02;;;;;;;3.65;3.35;;;;;;;26.16;30.98;96436.84;5136283;27;20080;-80
2023/06/08 10:11:31;;;;;;;5.15;3.85;;;;;;;26.11;31.36;96443.06;5136053;27;20058;-79
2023/06/08 10:13:58;;;;;;;4.20;3.80;;;;;;;26.13;30.81;96435.56;5136054;27;20090;-78
2023/06/08 10:16:26;;;;;;;4.35;3.95;;;;;;;26.18;30.84;96437.38;5137327;27;20593;-80
2023/06/08 10:18:57;;;;;;;4.55;4.15;;;;;;;26.19;30.80;96441.63;5137669;27;20063;-79
2023/06/08 10:21:26;;;;;;;4.95;4.32;;;;;;;26.17;31.47;96431.19;5135756;27;20525;-79
2023/06/08 10:23:56;;;;;;;4.72;4.32;;;;;;;26.17;33.00;96436.56;5135547;27;20100;-78
2023/06/08 10:26:24;;;;;;;5.03;4.28;;;;;;;26.17;33.69;96430.41;5135426;27;20039;-79
2023/06/08 10:29:10;;;;;;;4.30;3.97;;;;;;;26.21;33.86;96424.22;5135809;27;20073;-79
2023/06/08 10:31:49;;;;;;;5.95;4.28;;;;;;;26.28;33.57;96424.69;5135828;27;20051;-79
2023/06/08 10:34:18;;;;;;;6.35;3.85;;;;;;;26.35;32.06;96424.31;5135277;27;20067;-79
2023/06/08 10:36:46;;;;;;;4.82;3.75;;;;;;;26.37;31.20;96426.69;5134388;27;20631;-80
2023/06/08 10:39:16;;;;;;;4.32;3.83;;;;;;;26.35;30.51;96424.31;5134946;27;20526;-79
2023/06/08 10:41:46;;;;;;;4.30;3.90;;;;;;;26.33;30.71;96421.13;5135079;27;20061;-78
2023/06/08 10:44:27;;;;;;;5.40;3.90;;;;;;;26.28;30.23;96410.50;5135333;27;20364;-79
2023/06/08 10:46:59;;;;;;;5.13;4.63;;;;;;;26.26;32.12;96404.63;5135081;27;20076;-78
2023/06/08 10:49:32;;;;;;;4.93;4.45;;;;;;;26.31;32.73;96405.38;5134985;27;20064;-78
2023/06/08 10:52:01;;;;;;;4.80;4.40;;;;;;;26.38;32.66;96407.69;5135149;27;20299;-78
2023/06/08 10:54:30;;;;;;;4.40;4.00;;;;;;;26.37;31.39;96403.44;5134642;27;20051;-79
2023/06/08 10:57:04;;;;;;;5.05;4.47;;;;;;;26.33;31.42;96413.13;5135277;27;20082;-78
2023/06/08 10:59:45;;;;;;;5.43;4.35;;;;;;;26.28;31.79;96400.59;5136156;27;20058;-79
2023/06/08 11:02:12;;;;;;;5.07;3.90;;;;;;;26.27;31.11;96403.56;5134651;27;20055;-79
2023/06/08 11:04:41;;;;;;;4.18;3.78;;;;;;;26.28;31.94;96403.28;5135219;27;20399;-79
2023/06/08 11:07:26;;;;;;;5.82;4.45;;;;;;;26.33;31.87;96404.28;5135106;27;20047;-79
2023/06/08 11:09:54;;;;;;;5.85;4.07;;;;;;;26.38;32.17;96407.69;5135037;27;20407;-78
2023/06/08 11:12:22;;;;;;;4.80;4.32;;;;;;;26.44;32.06;96389.72;5134910;27;20047;-79
2023/06/08 11:14:50;;;;;;;3.92;3.55;;;;;;;26.54;32.20;96386.88;5134431;27;20464;-79
2023/06/08 11:17:17;;;;;;;4.88;3.95;;;;;;;26.62;31.31;96386.25;5134626;27;20139;-78
2023/06/08 11:19:46;;;;;;;4.18;3.88;;;;;;;26.63;30.97;96384.38;5134723;27;20074;-79
2023/06/08 11:22:14;;;;;;;4.05;3.70;;;;;;;26.63;31.09;96387.03;5134655;27;20498;-79
2023/06/08 11:24:43;;;;;;;4.50;3.72;;;;;;;26.61;29.94;96384.69;5134426;27;20051;-78
2023/06/08 11:27:16;;;;;;;4.88;4.13;;;;;;;26.62;30.08;96375.56;5135055;27;20051;-78
2023/06/08 11:29:45;;;;;;;5.13;4.63;;;;;;;26.64;30.39;96375.28;5134825;27;20055;-78
2023/06/08 11:32:14;;;;;;;4.82;4.28;;;;;;;26.64;30.29;96372.59;5134498;27;20106;-79
2023/06/08 11:34:45;;;;;;;6.13;4.30;;;;;;;26.59;30.88;96376.16;5134154;27;20047;-79
2023/06/08 11:37:19;;;;;;;4.93;4.43;;;;;;;26.59;30.41;96378.81;5133364;27;20043;-76
2023/06/08 11:39:48;;;;;;;4.25;3.53;;;;;;;26.62;30.76;96380.91;5132873;27;20047;-77
2023/06/08 11:42:17;;;;;;;4.93;4.43;;;;;;;26.63;30.07;96371.00;5133213;27;20099;-76
2023/06/08 11:44:44;;;;;;;4.20;3.80;;;;;;;26.59;29.75;96365.44;5132925;27;20070;-77
2023/06/08 11:47:12;;;;;;;3.85;3.55;;;;;;;26.60;29.66;96367.03;5132913;27;20039;-76
2023/06/08 11:49:52;;;;;;;4.57;3.95;;;;;;;26.64;30.06;96361.91;5133251;27;20047;-76
2023/06/08 11:52:23;;;;;;;5.32;3.92;;;;;;;26.67;29.51;96362.09;5133063;27;20422;-77
2023/06/08 11:54:54;;;;;;;4.38;3.97;;;;;;;26.68;29.96;96363.69;5132920;27;20054;-77
2023/06/08 11:57:22;;;;;;;5.00;4.35;;;;;;;26.68;30.45;96353.00;5132811;27;20085;-76
2023/06/08 11:59:50;;;;;;;4.35;3.95;;;;;;;26.70;30.60;96350.81;5132791;27;20074;-77
2023/06/08 12:02:22;;;;;;;5.18;4.03;;;;;;;26.77;30.20;96344.31;5132650;27;20043;-76
2023/06/08 12:04:50;;;;;;;4.07;3.50;;;;;;;26.85;30.00;96343.63;5132813;27;20043;-77
2023/06/08 12:07:17;;;;;;;4.25;3.85;;;;;;;26.91;29.89;96345.13;5132761;27;20047;-76
2023/06/08 12:09:50;;;;;;;3.80;3.38;;;;;;;26.96;29.15;96347.75;5132762;27;20081;-77
2023/06/08 12:12:17;;;;;;;5.22;3.65;;;;;;;27.02;29.14;96346.56;5132847;28;20092;-77
2023/06/08 12:14:46;;;;;;;3.92;3.63;;;;;;;27.08;28.38;96340.03;5132407;27;20050;-77
2023/06/08 12:17:15;;;;;;;3.65;3.35;;;;;;;27.12;27.78;96337.56;5132191;28;20047;-77
2023/06/08 12:19:43;;;;;;;3.85;3.50;;;;;;;27.13;28.26;96323.91;5132570;28;20514;-77
2023/06/08 12:22:11;;;;;;;4.10;3.72;;;;;;;27.15;28.04;96323.59;5132657;28;20104;-76
2023/06/08 12:24:39;;;;;;;4.10;3.70;;;;;;;27.16;28.65;96329.72;5132200;28;20048;-77
2023/06/08 12:27:08;;;;;;;4.25;3.90;;;;;;;27.19;30.00;96329.94;5132708;28;20050;-77
2023/06/08 12:29:36;;;;;;;4.28;3.88;;;;;;;27.17;29.78;96326.75;5132829;28;20055;-77
2023/06/08 12:32:04;;;;;;;4.68;4.07;;;;;;;27.10;29.73;96327.16;5132276;28;20108;-76
2023/06/08 12:34:33;;;;;;;4.53;3.80;;;;;;;27.08;29.29;96329.31;5132176;28;20526;-77
2023/06/08 12:37:00;;;;;;;4.15;3.85;;;;;;;27.08;29.37;96336.56;5132081;28;20088;-77
2023/06/08 12:39:28;;;;;;;4.18;3.72;;;;;;;27.04;29.20;96328.31;5132475;28;20096;-77
2023/06/08 12:41:57;;;;;;;4.40;4.00;;;;;;;27.00;29.58;96340.69;5132171;28;20395;-77
2023/06/08 12:44:27;;;;;;;4.50;3.80;;;;;;;26.92;29.29;96336.81;5132041;28;20130;-77
2023/06/08 12:46:54;;;;;;;4.20;3.83;;;;;;;26.87;29.03;96330.75;5132174;28;20111;-77
2023/06/08 12:49:22;;;;;;;4.35;3.95;;;;;;;26.83;29.08;96327.06;5132469;28;20103;-77
2023/06/08 12:51:50;;;;;;;3.78;3.47;;;;;;;26.81;29.26;96339.97;5132256;28;20054;-77
2023/06/08 12:54:18;;;;;;;3.92;3.60;;;;;;;26.79;29.13;96332.22;5132148;28;20100;-77
2023/06/08 12:56:45;;;;;;;4.30;3.85;;;;;;;26.77;29.66;96333.63;5131628;28;20120;-77
2023/06/08 12:59:13;;;;;;;4.80;4.40;;;;;;;26.73;29.85;96335.28;5132220;28;20142;-77
2023/06/08 13:01:42;;;;;;;3.75;3.45;;;;;;;26.68;30.05;96334.28;5134802;27;20047;-77
2023/06/08 13:04:10;;;;;;;5.10;4.07;;;;;;;26.64;29.94;96335.94;5135911;27;20099;-77
2023/06/08 13:06:37;;;;;;;5.38;4.30;;;;;;;26.58;30.16;96331.75;5135611;27;20519;-77
2023/06/08 13:09:05;;;;;;;5.07;3.92;;;;;;;26.54;30.63;96333.38;5136337;27;20653;-76
2023/06/08 13:11:33;;;;;;;4.55;3.83;;;;;;;26.49;30.79;96336.13;5136025;27;20091;-76
2023/06/08 13:14:00;;;;;;;4.65;4.13;;;;;;;26.43;32.11;96329.25;5135939;27;20069;-76
2023/06/08 13:16:28;;;;;;;4.55;4.15;;;;;;;26.31;33.68;96343.88;5135698;27;20051;-77
2023/06/08 13:18:57;;;;;;;5.22;4.03;;;;;;;26.16;34.51;96354.78;5140342;27;20100;-77
2023/06/08 13:21:25;;;;;;;4.15;3.75;;;;;;;26.02;35.45;96357.38;5135639;27;20059;-77
2023/06/08 13:23:52;;;;;;;6.50;3.90;;;;;;;25.89;36.16;96361.53;5135591;27;20100;-77
2023/06/08 13:26:24;;;;;;;5.22;4.72;;;;;;;25.76;36.13;96362.19;5135642;27;20043;-77
2023/06/08 13:28:51;;;;;;;5.00;4.53;;;;;;;25.59;37.58;96362.63;5136578;27;20183;-77
2023/06/08 13:31:19;;;;;;;8.15;4.28;;;;;;;25.36;38.82;96363.41;5136986;27;20475;-78
2023/06/08 13:33:47;;;;;;;7.55;3.92;;;;;;;25.04;39.20;96368.22;5137000;27;20058;-78
2023/06/08 13:36:16;;;;;;;4.90;4.38;;;;;;;24.78;37.35;96361.50;5136376;27;20072;-79
2023/06/08 13:38:44;;;;;;;9.25;4.25;;;;;;;24.62;38.77;96355.44;5135558;27;20088;-76
2023/06/08 13:41:11;;;;;;;5.15;3.97;;;;;;;24.55;38.41;96358.44;5136162;27;20043;-79
2023/06/08 13:43:40;;;;;;;7.05;4.53;;;;;;;24.50;38.80;96363.00;5136742;27;20103;-79
2023/06/08 13:46:07;;;;;;;6.57;4.28;;;;;;;24.47;39.59;96375.00;5135341;27;20133;-78
2023/06/08 13:48:35;;;;;;;4.03;3.70;;;;;;;24.46;39.60;96378.72;5135461;27;20054;-77
2023/06/08 13:51:04;;;;;;;4.60;4.20;;;;;;;24.43;40.07;96387.28;5135469;27;20059;-79
2023/06/08 13:53:33;;;;;;;6.43;4.68;;;;;;;24.33;40.61;96411.31;5135894;27;20123;-78
2023/06/08 13:56:02;;;;;;;6.03;4.35;;;;;;;24.21;40.55;96412.44;5135450;27;20129;-78
2023/06/08 13:58:30;;;;;;;5.43;4.90;;;;;;;24.12;41.35;96419.41;5135712;27;20043;-79
2023/06/08 14:00:58;;;;;;;7.72;5.75;;;;;;;23.99;41.67;96412.81;5135834;27;20074;-78
2023/06/08 14:03:26;;;;;;;5.25;4.75;;;;;;;23.92;41.91;96411.50;5135777;27;20059;-79
2023/06/08 14:05:53;;;;;;;7.35;4.68;;;;;;;23.85;42.44;96407.25;5135518;27;20043;-78
2023/06/08 14:08:21;;;;;;;6.63;3.53;;;;;;;23.77;42.36;96415.00;5135767;27;20065;-80
2023/06/08 14:10:50;;;;;;;5.53;4.80;;;;;;;23.65;41.89;96415.25;5135983;27;20089;-79
2023/06/08 14:13:17;;;;;;;6.90;4.72;;;;;;;23.54;42.06;96417.16;5143382;27;20047;-77
2023/06/08 14:15:45;;;;;;;6.20;4.55;;;;;;;23.44;42.81;96409.97;5134903;27;20484;-78
2023/06/08 14:18:13;;;;;;;5.03;4.22;;;;;;;23.37;42.68;96414.75;5134848;27;20470;-78
2023/06/08 14:20:41;;;;;;;5.15;4.65;;;;;;;23.33;42.41;96413.72;5134919;27;20639;-78
2023/06/08 14:23:09;;;;;;;5.30;4.10;;;;;;;23.22;42.24;96401.47;5135026;27;20462;-78
2023/06/08 14:25:37;;;;;;;6.60;4.60;;;;;;;23.14;42.25;96394.06;5134799;27;20108;-78
2023/06/08 14:28:06;;;;;;;6.45;4.28;;;;;;;23.10;41.76;96406.28;5135093;27;20612;-78
2023/06/08 14:30:33;;;;;;;5.40;4.90;;;;;;;23.04;41.38;96400.16;5134678;27;20047;-77
2023/06/08 14:33:01;;;;;;;7.65;5.00;;;;;;;22.98;41.49;96396.69;5135209;27;20100;-77
2023/06/08 14:35:29;;;;;;;7.22;4.63;;;;;;;22.90;41.67;96397.19;5134753;27;20050;-77
2023/06/08 14:37:57;;;;;;;6.15;4.50;;;;;;;22.84;42.47;96387.63;5134863;27;20055;-77
2023/06/08 14:40:25;;;;;;;4.40;4.00;;;;;;;22.76;42.88;96382.81;5134749;27;20100;-77
2023/06/08 14:42:52;;;;;;;6.10;5.00;;;;;;;22.67;43.29;96379.88;5134599;27;20090;-77
2023/06/08 14:45:21;;;;;;;7.85;4.70;;;;;;;22.62;43.53;96388.66;5134161;27;20636;-78
2023/06/08 14:47:49;;;;;;;6.30;5.15;;;;;;;22.62;44.38;96387.88;5134644;27;20559;-78
2023/06/08 14:50:16;;;;;;;5.15;4.35;;;;;;;22.65;44.43;96383.88;5134781;27;20426;-78
2023/06/08 14:52:44;;;;;;;6.57;4.90;;;;;;;22.65;44.31;96383.88;5134555;27;20047;-77
2023/06/08 14:55:12;;;;;;;5.32;4.28;;;;;;;22.65;43.96;96397.16;5134052;27;20126;-78
2023/06/08 14:57:40;;;;;;;5.65;4.72;;;;;;;22.65;43.88;96397.16;5134378;27;20440;-79
2023/06/08 15:00:09;;;;;;;7.28;5.90;;;;;;;22.64;44.19;96393.72;5134458;27;20051;-78
2023/06/08 15:02:38;;;;;;;5.20;4.75;;;;;;;22.65;44.78;96397.16;5134359;27;20449;-78
2023/06/08 15:05:07;;;;;;;8.25;5.32;;;;;;;22.66;45.06;96388.16;5134141;27;20055;-77
2023/06/08 15:07:36;;;;;;;4.88;4.47;;;;;;;22.60;45.58;96390.78;5134130;27;20093;-77
2023/06/08 15:10:04;;;;;;;5.85;5.20;;;;;;;22.60;46.51;96390.00;5134369;27;20047;-77
2023/06/08 15:12:32;;;;;;;5.85;4.97;;;;;;;22.61;47.23;96387.06;5134044;27;20082;-77
2023/06/08 15:15:00;;;;;;;6.45;5.20;;;;;;;22.60;47.75;96385.47;5134159;27;20562;-78
2023/06/08 15:17:28;;;;;;;7.25;5.88;;;;;;;22.58;48.39;96382.25;5134210;27;20534;-77
2023/06/08 15:19:57;;;;;;;6.10;4.82;;;;;;;22.56;49.09;96379.06;5134447;27;20133;-78
2023/06/08 15:22:24;;;;;;;6.90;5.55;;;;;;;22.58;49.44;96376.16;5133950;27;20096;-77
2023/06/08 15:24:52;;;;;;;5.55;5.05;;;;;;;22.58;49.57;96381.47;5133417;27;20108;-77
2023/06/08 15:27:20;;;;;;;11.40;5.93;;;;;;;22.58;49.44;96376.94;5133533;27;20047;-77
2023/06/08 15:29:47;;;;;;;6.03;5.32;;;;;;;22.57;49.90;96364.72;5134226;27;20530;-78
2023/06/08 15:32:17;;;;;;;5.78;5.18;;;;;;;22.57;49.77;96370.06;5134349;27;20097;-78
2023/06/08 15:34:44;;;;;;;6.20;5.57;;;;;;;22.58;50.63;96366.31;5133682;27;20494;-78
2023/06/08 15:37:13;;;;;;;5.75;5.25;;;;;;;22.60;50.92;96360.75;5133321;27;20522;-78
2023/06/08 15:39:41;;;;;;;5.88;5.20;;;;;;;22.60;50.55;96356.22;5134051;27;20126;-77
2023/06/08 15:42:09;;;;;;;6.47;5.88;;;;;;;22.59;50.40;96354.63;5133671;27;20043;-79
2023/06/08 15:44:36;;;;;;;5.72;5.22;;;;;;;22.59;50.36;96351.97;5133500;27;20096;-78
2023/06/08 15:47:04;;;;;;;6.13;5.60;;;;;;;22.58;50.62;96347.72;5133223;27;20081;-78
2023/06/08 15:49:32;;;;;;;5.78;5.18;;;;;;;22.60;50.06;96342.94;5133577;27;20082;-77
2023/06/08 15:52:00;;;;;;;5.55;5.05;;;;;;;22.62;50.20;96340.81;5133435;27;20046;-77
2023/06/08 15:54:28;;;;;;;7.78;6.82;;;;;;;22.63;50.43;96350.38;5133636;27;20043;-77
2023/06/08 15:56:56;;;;;;;6.32;5.75;;;;;;;22.63;50.69;96344.28;5133335;27;20092;-77
2023/06/08 15:59:24;;;;;;;6.13;5.20;;;;;;;22.66;51.29;96345.59;5133881;27;20299;-77
2023/06/08 16:01:51;;;;;;;6.60;5.70;;;;;;;22.66;51.53;96343.75;5143548;27;20046;-77
2023/06/08 16:04:20;;;;;;;5.85;5.35;;;;;;;22.66;51.87;96340.28;5153302;27;20107;-77
2023/06/08 16:06:48;;;;;;;7.22;6.53;;;;;;;22.67;51.52;96333.91;5141328;27;20061;-78
2023/06/08 16:09:16;;;;;;;6.10;5.55;;;;;;;22.70;51.43;96336.03;5134648;27;20092;-78
2023/06/08 16:11:44;;;;;;;6.10;5.45;;;;;;;22.71;51.93;96337.63;5133899;27;20103;-78